createdAt,value
2022-08-07T00:02:36.230Z,100.00
2022-08-07T00:05:23.606Z,100.00
2022-08-07T00:08:05.384Z,100.00
2022-08-07T00:10:57.503Z,100.00
2022-08-07T00:13:44.810Z,100.00
2022-08-07T00:16:36.478Z,100.00
2022-08-07T00:19:26.038Z,100.00
2022-08-07T00:22:09.846Z,100.00
2022-08-07T00:24:52.031Z,100.00
2022-08-07T00:27:35.843Z,100.00
2022-08-07T00:30:32.496Z,100.00
2022-08-07T00:34:09.001Z,100.00
2022-08-07T00:36:50.164Z,100.00
2022-08-07T00:39:30.716Z,100.00
2022-08-07T00:42:10.856Z,100.00
2022-08-07T00:44:51.868Z,100.00
2022-08-07T00:48:09.304Z,100.00
2022-08-07T00:50:50.752Z,100.00
2022-08-07T00:53:39.101Z,100.00
2022-08-07T00:56:33.872Z,100.00
2022-08-07T00:59:15.991Z,100.00
2022-08-07T01:01:57.871Z,100.00
2022-08-07T01:04:43.181Z,100.00
2022-08-07T01:07:28.661Z,100.00
2022-08-07T01:10:12.548Z,100.00
2022-08-07T01:12:56.918Z,100.00
2022-08-07T01:16:05.066Z,100.00
2022-08-07T01:18:46.222Z,100.00
2022-08-07T01:21:27.616Z,100.00
2022-08-07T01:24:13.574Z,100.00
2022-08-07T01:26:55.552Z,100.00
2022-08-07T01:29:38.938Z,100.00
2022-08-07T01:32:22.538Z,100.00
2022-08-07T01:35:36.862Z,100.00
2022-08-07T01:38:29.302Z,100.00
2022-08-07T01:41:27.537Z,100.00
2022-08-07T01:44:11.626Z,100.00
2022-08-07T01:46:55.500Z,100.00
2022-08-07T01:49:38.493Z,100.00
2022-08-07T01:52:19.867Z,100.00
2022-08-07T01:55:03.167Z,100.00
2022-08-07T01:58:06.198Z,100.00
2022-08-07T02:00:57.961Z,100.00
2022-08-07T02:03:55.671Z,100.00
2022-08-07T02:06:35.638Z,100.00
2022-08-07T02:09:51.994Z,100.00
2022-08-07T02:12:19.394Z,100.00
2022-08-07T02:15:11.404Z,100.00
2022-08-07T02:17:59.916Z,100.00
2022-08-07T02:20:55.925Z,100.00
2022-08-07T02:23:39.532Z,100.00
2022-08-07T02:26:32.919Z,100.00
2022-08-07T02:29:15.959Z,100.00
2022-08-07T02:32:05.251Z,100.00
2022-08-07T02:34:49.006Z,100.00
2022-08-07T02:37:46.675Z,100.00
2022-08-07T02:40:35.255Z,100.00
2022-08-07T02:43:18.070Z,100.00
2022-08-07T02:46:02.213Z,100.00
2022-08-07T02:48:54.711Z,100.00
2022-08-07T02:51:42.668Z,100.00
2022-08-07T02:54:36.468Z,100.00
2022-08-07T02:57:21.572Z,100.00
2022-08-07T03:00:15.620Z,100.00
2022-08-07T03:02:59.469Z,100.00
2022-08-07T03:05:42.171Z,100.00
2022-08-07T03:08:26.765Z,100.00
2022-08-07T03:11:09.675Z,100.00
2022-08-07T03:13:57.559Z,100.00
2022-08-07T03:16:43.799Z,100.00
2022-08-07T03:19:28.935Z,100.00
2022-08-07T03:22:20.049Z,100.00
2022-08-07T03:25:05.212Z,100.00
2022-08-07T03:28:09.371Z,100.00
2022-08-07T03:31:14.552Z,100.00
2022-08-07T03:33:59.424Z,100.00
2022-08-07T03:36:40.389Z,100.00
2022-08-07T03:39:45.918Z,100.00
2022-08-07T03:42:22.418Z,100.00
2022-08-07T03:45:05.010Z,100.00
2022-08-07T03:47:51.267Z,100.00
2022-08-07T03:50:35.799Z,100.00
2022-08-07T03:53:18.194Z,100.00
2022-08-07T03:56:04.413Z,100.00
2022-08-07T03:59:08.774Z,100.00
2022-08-07T04:01:51.052Z,100.00
2022-08-07T04:04:35.350Z,100.00
2022-08-07T04:07:18.135Z,100.00
2022-08-07T04:10:05.903Z,100.00
2022-08-07T04:12:56.214Z,100.00
2022-08-07T04:15:36.962Z,100.00
2022-08-07T04:18:56.893Z,100.00
2022-08-07T04:21:18.877Z,100.00
2022-08-07T04:24:07.378Z,100.00
2022-08-07T04:27:15.084Z,100.00
2022-08-07T04:30:04.595Z,100.00
2022-08-07T04:32:58.442Z,100.00
2022-08-07T04:35:53.966Z,100.00
2022-08-07T04:38:38.603Z,100.00
2022-08-07T04:41:19.307Z,100.00
2022-08-07T04:44:13.189Z,100.00
2022-08-07T04:47:08.478Z,100.00
2022-08-07T04:50:03.880Z,100.00
2022-08-07T04:52:52.829Z,100.00
2022-08-07T04:58:14.418Z,100.00
2022-08-07T05:01:57.326Z,100.00
2022-08-07T05:04:43.964Z,100.00
2022-08-07T05:07:48.645Z,100.00
2022-08-07T05:10:48.685Z,100.00
2022-08-07T05:14:54.299Z,100.00
2022-08-07T05:16:34.114Z,100.00
2022-08-07T05:19:43.975Z,100.00
2022-08-07T05:22:27.629Z,100.00
2022-08-07T05:25:26.286Z,100.00
2022-08-07T05:28:22.735Z,100.00
2022-08-07T05:31:04.868Z,100.00
2022-08-07T05:34:01.398Z,100.00
2022-08-07T05:36:53.091Z,100.00
2022-08-07T05:40:16.822Z,100.00
2022-08-07T05:42:55.865Z,100.00
2022-08-07T05:45:56.496Z,100.00
2022-08-07T05:48:38.135Z,100.00
2022-08-07T05:51:40.107Z,100.00
2022-08-07T05:54:44.601Z,100.00
2022-08-07T05:57:30.016Z,100.00
2022-08-07T06:00:19.892Z,100.00
2022-08-07T06:03:10.320Z,100.00
2022-08-07T06:05:56.498Z,100.00
2022-08-07T06:08:42.446Z,100.00
2022-08-07T06:11:27.173Z,100.00
2022-08-07T06:14:12.685Z,100.00
2022-08-07T06:17:07.180Z,100.00
2022-08-07T06:20:03.392Z,100.00
2022-08-07T06:22:50.672Z,100.00
2022-08-07T06:25:54.814Z,100.00
2022-08-07T06:28:50.497Z,100.00
2022-08-07T06:31:46.870Z,100.00
2022-08-07T06:34:32.748Z,100.00
2022-08-07T06:37:17.184Z,100.00
2022-08-07T06:40:13.135Z,100.00
2022-08-07T06:42:57.898Z,100.00
2022-08-07T06:45:56.289Z,100.00
2022-08-07T06:48:41.832Z,100.00
2022-08-07T06:51:33.336Z,100.00
2022-08-07T06:55:34.449Z,100.00
2022-08-07T06:57:21.081Z,100.00
2022-08-07T07:00:21.445Z,100.00
2022-08-07T07:03:08.801Z,100.00
2022-08-07T07:06:02.995Z,100.00
2022-08-07T07:08:49.539Z,100.00
2022-08-07T07:12:08.606Z,100.00
2022-08-07T07:14:33.905Z,100.00
2022-08-07T07:17:38.786Z,100.00
2022-08-07T07:20:21.950Z,100.00
2022-08-07T07:24:08.317Z,100.00
2022-08-07T07:26:32.752Z,100.00
2022-08-07T07:29:39.812Z,100.00
2022-08-07T07:32:14.049Z,100.00
2022-08-07T07:34:58.918Z,100.00
2022-08-07T07:37:47.155Z,100.00
2022-08-07T07:40:34.080Z,100.00
2022-08-07T07:43:27.405Z,100.00
2022-08-07T07:46:50.358Z,100.00
2022-08-07T07:50:35.903Z,100.00
2022-08-07T07:52:22.123Z,100.00
2022-08-07T07:55:08.474Z,100.00
2022-08-07T07:57:54.071Z,100.00
2022-08-07T08:00:40.478Z,100.00
2022-08-07T08:04:06.471Z,100.00
2022-08-07T08:06:26.062Z,100.00
2022-08-07T08:09:08.203Z,100.00
2022-08-07T08:12:01.833Z,100.00
2022-08-07T08:14:46.149Z,100.00
2022-08-07T08:17:58.016Z,100.00
2022-08-07T08:20:32.848Z,100.00
2022-08-07T08:23:35.856Z,100.00
2022-08-07T08:26:34.696Z,100.00
2022-08-07T08:29:17.988Z,100.00
2022-08-07T08:32:18.508Z,100.00
2022-08-07T08:34:59.442Z,100.00
2022-08-07T08:38:00.902Z,100.00
2022-08-07T08:40:59.273Z,100.00
2022-08-07T08:44:02.973Z,100.00
2022-08-07T08:47:17.189Z,100.00
2022-08-07T08:50:06.078Z,100.00
2022-08-07T08:53:06.281Z,100.00
2022-08-07T08:55:54.414Z,94.17
2022-08-07T08:58:50.566Z,92.64
2022-08-07T09:01:46.578Z,100.00
2022-08-07T09:04:36.460Z,100.00
2022-08-07T09:07:23.138Z,80.78
2022-08-07T09:10:21.193Z,72.49
2022-08-07T09:13:18.452Z,96.11
2022-08-07T09:16:25.229Z,88.70
2022-08-07T09:19:52.041Z,64.00
2022-08-07T09:24:31.147Z,65.22
2022-08-07T09:26:02.767Z,83.41
2022-08-07T09:30:01.792Z,75.71
2022-08-07T09:32:02.792Z,96.03
2022-08-07T09:34:54.058Z,78.79
2022-08-07T09:37:48.299Z,74.89
2022-08-07T09:40:41.867Z,69.73
2022-08-07T09:43:40.564Z,70.29
2022-08-07T09:47:50.580Z,60.31
2022-08-07T09:50:19.167Z,55.60
2022-08-07T09:53:13.417Z,60.80
2022-08-07T09:56:19.824Z,72.83
2022-08-07T09:59:44.694Z,60.25
2022-08-07T10:04:06.114Z,64.06
2022-08-07T10:06:36.681Z,58.68
2022-08-07T10:09:42.488Z,64.04
2022-08-07T10:12:39.698Z,63.92
2022-08-07T10:15:28.723Z,55.81
2022-08-07T10:18:26.662Z,48.46
2022-08-07T10:22:12.049Z,51.67
2022-08-07T10:24:40.393Z,70.28
2022-08-07T10:27:55.981Z,58.52
2022-08-07T10:31:12.631Z,58.50
2022-08-07T10:34:14.323Z,57.57
2022-08-07T10:37:05.666Z,50.27
2022-08-07T10:40:10.090Z,49.92
2022-08-07T10:42:59.844Z,64.85
2022-08-07T10:45:48.113Z,56.02
2022-08-07T10:48:44.251Z,52.34
2022-08-07T10:51:39.154Z,49.64
2022-08-07T10:54:30.027Z,45.72
2022-08-07T10:57:16.695Z,63.09
2022-08-07T11:00:08.952Z,55.83
2022-08-07T11:03:11.010Z,45.12
2022-08-07T11:05:56.555Z,55.59
2022-08-07T11:08:41.628Z,50.99
2022-08-07T11:11:26.931Z,58.93
2022-08-07T11:14:43.607Z,48.24
2022-08-07T11:17:23.189Z,58.02
2022-08-07T11:20:07.708Z,51.50
2022-08-07T11:22:56.476Z,51.47
2022-08-07T11:25:48.255Z,46.38
2022-08-07T11:28:35.643Z,44.33
2022-08-07T11:31:23.428Z,48.58
2022-08-07T11:34:10.290Z,54.00
2022-08-07T11:36:57.772Z,50.38
2022-08-07T11:39:59.741Z,45.58
2022-08-07T11:42:58.275Z,43.31
2022-08-07T11:45:59.243Z,54.18
2022-08-07T11:49:50.458Z,39.67
2022-08-07T11:52:29.338Z,39.92
2022-08-07T11:56:11.957Z,45.25
2022-08-07T11:58:33.334Z,43.24
2022-08-07T12:01:53.203Z,42.22
2022-08-07T12:04:36.431Z,40.87
2022-08-07T12:07:27.659Z,42.17
2022-08-07T12:10:26.493Z,45.54
2022-08-07T12:13:17.035Z,45.42
2022-08-07T12:16:09.254Z,42.25
2022-08-07T12:18:56.892Z,50.67
2022-08-07T12:21:55.987Z,44.23
2022-08-07T12:25:07.848Z,44.33
2022-08-07T12:28:08.667Z,43.43
2022-08-07T12:30:54.395Z,45.24
2022-08-07T12:34:00.699Z,53.61
2022-08-07T12:36:37.585Z,44.89
2022-08-07T12:39:43.170Z,49.11
2022-08-07T12:42:28.654Z,48.70
2022-08-07T12:45:20.749Z,49.12
2022-08-07T12:48:13.251Z,51.06
2022-08-07T12:51:13.190Z,55.04
2022-08-07T12:54:36.974Z,47.96
2022-08-07T12:57:19.719Z,49.17
2022-08-07T13:00:00.710Z,58.36
2022-08-07T13:02:52.011Z,62.56
2022-08-07T13:06:03.525Z,56.64
2022-08-07T13:08:53.707Z,60.84
2022-08-07T13:12:01.989Z,64.17
2022-08-07T13:14:55.270Z,57.33
2022-08-07T13:17:43.468Z,72.99
2022-08-07T13:20:29.160Z,85.79
2022-08-07T13:24:00.712Z,70.13
2022-08-07T13:26:53.722Z,70.73
2022-08-07T13:29:42.500Z,80.38
2022-08-07T13:32:32.368Z,73.12
2022-08-07T13:36:00.644Z,70.59
2022-08-07T13:38:31.022Z,82.39
2022-08-07T13:41:33.184Z,90.38
2022-08-07T13:44:13.743Z,84.33
2022-08-07T13:46:58.820Z,86.65
2022-08-07T13:50:33.063Z,90.21
2022-08-07T13:52:47.045Z,72.61
2022-08-07T13:55:28.274Z,94.20
2022-08-07T13:58:32.571Z,69.06
2022-08-07T14:01:28.669Z,63.82
2022-08-07T14:04:16.910Z,69.73
2022-08-07T14:07:09.615Z,77.99
2022-08-07T14:10:20.384Z,63.35
2022-08-07T14:13:03.908Z,79.46
2022-08-07T14:15:44.369Z,91.18
2022-08-07T14:18:39.881Z,81.69
2022-08-07T14:22:41.242Z,88.01
2022-08-07T14:24:26.304Z,94.19
2022-08-07T14:27:16.263Z,70.35
2022-08-07T14:30:13.907Z,90.47
2022-08-07T14:32:56.897Z,100.00
2022-08-07T14:35:45.266Z,93.97
2022-08-07T14:38:31.435Z,96.13
2022-08-07T14:41:19.655Z,76.16
2022-08-07T14:44:15.940Z,70.86
2022-08-07T14:47:14.194Z,82.34
2022-08-07T14:49:59.293Z,100.00
2022-08-07T14:52:40.611Z,95.46
2022-08-07T14:55:23.158Z,96.84
2022-08-07T14:58:04.912Z,92.69
2022-08-07T15:00:49.024Z,88.30
2022-08-07T15:06:32.465Z,97.52
2022-08-07T15:09:59.174Z,100.00
2022-08-07T15:12:25.543Z,95.89
2022-08-07T15:15:31.936Z,94.27
2022-08-07T15:18:33.589Z,79.04
2022-08-07T15:21:43.721Z,76.51
2022-08-07T15:25:13.967Z,83.05
2022-08-07T15:27:26.622Z,100.00
2022-08-07T15:33:19.664Z,100.00
2022-08-07T15:36:05.403Z,100.00
2022-08-07T15:38:59.249Z,90.48
2022-08-07T15:42:44.541Z,100.00
2022-08-07T15:45:02.286Z,95.91
2022-08-07T15:48:12.527Z,100.00
2022-08-07T15:51:08.289Z,94.48
2022-08-07T15:53:53.667Z,98.20
2022-08-07T15:56:36.207Z,92.51
2022-08-07T15:59:20.116Z,86.81
2022-08-07T16:02:25.635Z,94.99
2022-08-07T16:05:23.120Z,85.36
2022-08-07T16:08:38.805Z,100.00
2022-08-07T16:11:40.133Z,100.00
2022-08-07T16:14:34.221Z,93.58
2022-08-07T16:18:01.972Z,95.19
2022-08-07T16:20:55.315Z,82.70
2022-08-07T16:23:58.626Z,100.00
2022-08-07T16:27:01.081Z,100.00
2022-08-07T16:30:11.485Z,93.11
2022-08-07T16:34:05.979Z,88.67
2022-08-07T16:36:31.334Z,88.00
2022-08-07T16:39:40.683Z,89.08
2022-08-07T16:42:40.012Z,99.70
2022-08-07T16:46:21.312Z,100.00
2022-08-07T16:50:28.883Z,87.69
2022-08-07T16:52:50.701Z,100.00
2022-08-07T16:55:27.326Z,100.00
2022-08-07T16:58:54.273Z,100.00
2022-08-07T17:01:41.234Z,100.00
2022-08-07T17:04:34.341Z,100.00
2022-08-07T17:07:28.127Z,100.00
2022-08-07T17:10:36.017Z,100.00
2022-08-07T17:14:17.919Z,100.00
2022-08-07T17:16:55.549Z,100.00
2022-08-07T17:20:02.362Z,99.08
2022-08-07T17:22:57.744Z,100.00
2022-08-07T17:25:52.069Z,100.00
2022-08-07T17:28:38.285Z,97.85
2022-08-07T17:31:19.969Z,95.98
2022-08-07T17:34:33.038Z,100.00
2022-08-07T17:38:11.504Z,100.00
2022-08-07T17:40:30.710Z,100.00
2022-08-07T17:44:00.871Z,100.00
2022-08-07T17:46:34.400Z,100.00
2022-08-07T17:49:24.125Z,100.00
2022-08-07T17:52:12.877Z,100.00
2022-08-07T17:54:56.109Z,100.00
2022-08-07T17:57:59.175Z,100.00
2022-08-07T18:00:49.221Z,100.00
2022-08-07T18:04:04.214Z,100.00
2022-08-07T18:06:42.875Z,100.00
2022-08-07T18:10:06.725Z,100.00
2022-08-07T18:12:34.441Z,100.00
2022-08-07T18:15:20.217Z,100.00
2022-08-07T18:18:45.267Z,100.00
2022-08-07T18:21:28.766Z,100.00
2022-08-07T18:24:33.190Z,100.00
2022-08-07T18:27:38.422Z,100.00
2022-08-07T18:30:32.621Z,100.00
2022-08-07T18:33:55.183Z,100.00
2022-08-07T18:36:55.209Z,100.00
2022-08-07T18:40:08.614Z,100.00
2022-08-07T18:43:06.583Z,100.00
2022-08-07T18:46:24.748Z,100.00
2022-08-07T18:50:31.464Z,100.00
2022-08-07T18:52:40.894Z,100.00
2022-08-07T18:55:40.524Z,100.00
2022-08-07T18:58:39.095Z,100.00
2022-08-07T19:02:17.988Z,100.00
2022-08-07T19:04:57.581Z,100.00
2022-08-07T19:07:52.936Z,100.00
2022-08-07T19:10:51.205Z,100.00
2022-08-07T19:13:50.960Z,100.00
2022-08-07T19:17:00.404Z,100.00
2022-08-07T19:19:39.941Z,100.00
2022-08-07T19:22:31.150Z,100.00
2022-08-07T19:26:23.663Z,100.00
2022-08-07T19:28:29.593Z,100.00
2022-08-07T19:31:42.157Z,100.00
2022-08-07T19:34:15.857Z,100.00
2022-08-07T19:37:17.645Z,100.00
2022-08-07T19:40:01.859Z,100.00
2022-08-07T19:42:55.666Z,100.00
2022-08-07T19:46:07.151Z,100.00
2022-08-07T19:48:44.828Z,100.00
2022-08-07T19:51:50.803Z,100.00
2022-08-07T19:54:55.651Z,100.00
2022-08-07T19:58:01.099Z,100.00
2022-08-07T20:00:54.036Z,100.00
2022-08-07T20:03:37.235Z,100.00
2022-08-07T20:06:43.632Z,100.00
2022-08-07T20:10:33.352Z,100.00
2022-08-07T20:12:34.374Z,100.00
2022-08-07T20:15:22.148Z,100.00
2022-08-07T20:18:18.341Z,100.00
2022-08-07T20:21:02.130Z,100.00
2022-08-07T20:23:48.454Z,100.00
2022-08-07T20:26:46.167Z,100.00
2022-08-07T20:29:48.274Z,100.00
2022-08-07T20:32:41.206Z,100.00
2022-08-07T20:35:33.523Z,100.00
2022-08-07T20:38:15.249Z,100.00
2022-08-07T20:41:01.701Z,100.00
2022-08-07T20:43:47.857Z,100.00
2022-08-07T20:46:34.752Z,100.00
2022-08-07T20:49:59.148Z,100.00
2022-08-07T20:52:50.774Z,100.00
2022-08-07T20:55:28.215Z,100.00
2022-08-07T20:58:26.560Z,100.00
2022-08-07T21:01:19.952Z,100.00
2022-08-07T21:04:21.696Z,100.00
2022-08-07T21:07:04.034Z,100.00
2022-08-07T21:10:00.275Z,100.00
2022-08-07T21:12:41.307Z,100.00
2022-08-07T21:15:48.044Z,100.00
2022-08-07T21:18:29.397Z,100.00
2022-08-07T21:21:11.797Z,100.00
2022-08-07T21:24:00.031Z,100.00
2022-08-07T21:26:44.979Z,100.00
2022-08-07T21:29:33.462Z,100.00
2022-08-07T21:32:48.460Z,100.00
2022-08-07T21:36:00.085Z,100.00
2022-08-07T21:38:31.622Z,100.00
2022-08-07T21:41:20.430Z,100.00
2022-08-07T21:44:28.492Z,100.00
2022-08-07T21:47:17.162Z,100.00
2022-08-07T21:50:02.881Z,100.00
2022-08-07T21:52:49.362Z,100.00
2022-08-07T21:55:38.434Z,100.00
2022-08-07T21:58:32.911Z,100.00
2022-08-07T22:01:18.486Z,100.00
2022-08-07T22:04:08.638Z,100.00
2022-08-07T22:07:02.314Z,100.00
2022-08-07T22:09:54.118Z,100.00
2022-08-07T22:12:41.785Z,100.00
2022-08-07T22:16:39.781Z,100.00
2022-08-07T22:18:34.776Z,100.00
2022-08-07T22:22:04.999Z,100.00
2022-08-07T22:24:44.475Z,100.00
2022-08-07T22:27:51.237Z,100.00
2022-08-07T22:30:37.366Z,100.00
2022-08-07T22:33:18.196Z,100.00
2022-08-07T22:36:30.275Z,100.00
2022-08-07T22:39:23.247Z,100.00
2022-08-07T22:42:34.842Z,100.00
2022-08-07T22:46:40.812Z,100.00
2022-08-07T22:49:02.226Z,100.00
2022-08-07T22:51:58.213Z,100.00
2022-08-07T22:54:54.672Z,100.00
2022-08-07T22:57:50.109Z,100.00
2022-08-07T23:00:49.271Z,100.00
2022-08-07T23:03:58.479Z,100.00
2022-08-07T23:06:54.796Z,100.00
2022-08-07T23:10:05.950Z,100.00
2022-08-07T23:12:56.677Z,100.00
2022-08-07T23:16:06.386Z,100.00
2022-08-07T23:19:13.952Z,100.00
2022-08-07T23:21:59.146Z,100.00
2022-08-07T23:24:48.835Z,100.00
2022-08-07T23:28:21.223Z,100.00
2022-08-07T23:31:06.433Z,100.00
2022-08-07T23:34:35.390Z,100.00
2022-08-07T23:38:01.657Z,100.00
2022-08-07T23:40:43.780Z,100.00
2022-08-07T23:43:51.258Z,100.00
2022-08-07T23:46:50.764Z,100.00
2022-08-07T23:49:52.780Z,100.00
2022-08-07T23:53:00.908Z,100.00
2022-08-07T23:55:51.880Z,100.00
2022-08-07T23:58:39.891Z,100.00
